sensor_id;sensor_type;location;lat;lon;timestamp;temperature;humidity
2497;DHT22;1259;48.306;14.374;2023-02-15T00:01:48;-0.70;99.90
2497;DHT22;1259;48.306;14.374;2023-02-15T00:04:15;-0.80;99.90
2497;DHT22;1259;48.306;14.374;2023-02-15T00:06:42;-0.60;99.90
2497;DHT22;1259;48.306;14.374;2023-02-15T00:09:09;-0.60;99.90
2497;DHT22;1259;48.306;14.374;2023-02-15T00:11:36;-0.50;99.90
2497;DHT22;1259;48.306;14.374;2023-02-15T00:14:06;-0.50;99.90
2497;DHT22;1259;48.306;14.374;2023-02-15T00:16:33;-0.60;99.90
2497;DHT22;1259;48.306;14.374;2023-02-15T00:19:01;-0.40;99.90
2497;DHT22;1259;48.306;14.374;2023-02-15T00:21:28;-0.40;99.90
2497;DHT22;1259;48.306;14.374;2023-02-15T00:23:56;-0.40;99.90
2497;DHT22;1259;48.306;14.374;2023-02-15T00:26:22;-0.30;99.90
2497;DHT22;1259;48.306;14.374;2023-02-15T00:28:49;-0.20;99.90
2497;DHT22;1259;48.306;14.374;2023-02-15T00:31:16;-0.20;99.90
2497;DHT22;1259;48.306;14.374;2023-02-15T00:33:42;-0.30;99.90
2497;DHT22;1259;48.306;14.374;2023-02-15T00:36:10;-0.20;99.90
2497;DHT22;1259;48.306;14.374;2023-02-15T00:38:37;-0.20;99.90
2497;DHT22;1259;48.306;14.374;2023-02-15T00:41:05;-0.30;99.90
2497;DHT22;1259;48.306;14.374;2023-02-15T00:43:32;-0.30;99.90
2497;DHT22;1259;48.306;14.374;2023-02-15T00:45:59;-0.30;99.90
2497;DHT22;1259;48.306;14.374;2023-02-15T00:48:26;-0.30;99.90
2497;DHT22;1259;48.306;14.374;2023-02-15T00:50:53;-0.40;99.90
2497;DHT22;1259;48.306;14.374;2023-02-15T00:53:22;-0.40;99.90
2497;DHT22;1259;48.306;14.374;2023-02-15T00:55:48;-0.50;99.90
2497;DHT22;1259;48.306;14.374;2023-02-15T00:58:15;-0.40;99.90
2497;DHT22;1259;48.306;14.374;2023-02-15T01:00:43;-0.50;99.90
2497;DHT22;1259;48.306;14.374;2023-02-15T01:03:10;-0.60;99.90
2497;DHT22;1259;48.306;14.374;2023-02-15T01:05:37;-0.60;99.90
2497;DHT22;1259;48.306;14.374;2023-02-15T01:08:04;-0.60;99.90
2497;DHT22;1259;48.306;14.374;2023-02-15T01:10:33;-0.60;99.90
2497;DHT22;1259;48.306;14.374;2023-02-15T01:12:59;-0.60;99.90
2497;DHT22;1259;48.306;14.374;2023-02-15T01:15:26;-0.60;99.90
2497;DHT22;1259;48.306;14.374;2023-02-15T01:17:53;-0.80;99.90
2497;DHT22;1259;48.306;14.374;2023-02-15T01:20:20;-0.90;99.90
2497;DHT22;1259;48.306;14.374;2023-02-15T01:22:47;-0.90;99.90
2497;DHT22;1259;48.306;14.374;2023-02-15T01:25:15;-0.90;99.90
2497;DHT22;1259;48.306;14.374;2023-02-15T01:27:43;-1.00;99.90
2497;DHT22;1259;48.306;14.374;2023-02-15T01:30:10;-1.00;99.90
2497;DHT22;1259;48.306;14.374;2023-02-15T01:32:37;-1.00;99.90
2497;DHT22;1259;48.306;14.374;2023-02-15T01:35:04;-1.00;99.90
2497;DHT22;1259;48.306;14.374;2023-02-15T01:37:31;-1.00;99.90
2497;DHT22;1259;48.306;14.374;2023-02-15T01:39:58;-1.10;99.90
2497;DHT22;1259;48.306;14.374;2023-02-15T01:42:25;-1.10;99.90
2497;DHT22;1259;48.306;14.374;2023-02-15T01:44:54;-1.10;99.90
2497;DHT22;1259;48.306;14.374;2023-02-15T01:47:23;-1.10;99.90
2497;DHT22;1259;48.306;14.374;2023-02-15T01:49:52;-1.00;99.90
2497;DHT22;1259;48.306;14.374;2023-02-15T01:52:22;-1.10;99.90
2497;DHT22;1259;48.306;14.374;2023-02-15T01:54:49;-1.10;99.90
2497;DHT22;1259;48.306;14.374;2023-02-15T01:57:17;-1.10;99.90
2497;DHT22;1259;48.306;14.374;2023-02-15T01:59:46;-1.20;99.90
2497;DHT22;1259;48.306;14.374;2023-02-15T02:02:16;-1.10;99.90
2497;DHT22;1259;48.306;14.374;2023-02-15T02:04:47;-1.20;99.90
2497;DHT22;1259;48.306;14.374;2023-02-15T02:07:15;-1.10;99.90
2497;DHT22;1259;48.306;14.374;2023-02-15T02:09:42;-1.10;99.90
2497;DHT22;1259;48.306;14.374;2023-02-15T02:12:09;-1.00;99.90
2497;DHT22;1259;48.306;14.374;2023-02-15T02:14:36;-1.10;99.90
2497;DHT22;1259;48.306;14.374;2023-02-15T02:17:05;-1.10;99.90
2497;DHT22;1259;48.306;14.374;2023-02-15T02:19:44;-1.20;99.90
2497;DHT22;1259;48.306;14.374;2023-02-15T02:22:23;-1.30;99.90
2497;DHT22;1259;48.306;14.374;2023-02-15T02:25:23;-1.20;99.90
2497;DHT22;1259;48.306;14.374;2023-02-15T02:27:58;-1.20;99.90
2497;DHT22;1259;48.306;14.374;2023-02-15T02:30:40;-1.20;99.90
2497;DHT22;1259;48.306;14.374;2023-02-15T02:33:26;-1.20;99.90
2497;DHT22;1259;48.306;14.374;2023-02-15T02:36:01;-1.20;99.90
2497;DHT22;1259;48.306;14.374;2023-02-15T02:38:32;-1.20;99.90
2497;DHT22;1259;48.306;14.374;2023-02-15T02:41:02;-1.10;99.90
2497;DHT22;1259;48.306;14.374;2023-02-15T02:43:33;-1.10;99.90
2497;DHT22;1259;48.306;14.374;2023-02-15T02:46:02;-1.20;99.90
2497;DHT22;1259;48.306;14.374;2023-02-15T02:48:33;-1.10;99.90
2497;DHT22;1259;48.306;14.374;2023-02-15T02:51:00;-1.10;99.90
2497;DHT22;1259;48.306;14.374;2023-02-15T02:53:27;-1.10;99.90
2497;DHT22;1259;48.306;14.374;2023-02-15T02:55:56;-1.10;99.90
2497;DHT22;1259;48.306;14.374;2023-02-15T02:58:26;-1.10;99.90
2497;DHT22;1259;48.306;14.374;2023-02-15T03:00:56;-1.10;99.90
2497;DHT22;1259;48.306;14.374;2023-02-15T03:03:24;-1.00;99.90
2497;DHT22;1259;48.306;14.374;2023-02-15T03:05:54;-1.00;99.90
2497;DHT22;1259;48.306;14.374;2023-02-15T03:08:22;-1.10;99.90
2497;DHT22;1259;48.306;14.374;2023-02-15T03:10:53;-1.00;99.90
2497;DHT22;1259;48.306;14.374;2023-02-15T03:13:22;-1.00;99.90
2497;DHT22;1259;48.306;14.374;2023-02-15T03:15:49;-1.10;99.90
2497;DHT22;1259;48.306;14.374;2023-02-15T03:18:34;-1.00;99.90
2497;DHT22;1259;48.306;14.374;2023-02-15T03:21:03;-1.10;99.90
2497;DHT22;1259;48.306;14.374;2023-02-15T03:23:31;-1.10;99.90
2497;DHT22;1259;48.306;14.374;2023-02-15T03:26:00;-1.10;99.90
2497;DHT22;1259;48.306;14.374;2023-02-15T03:28:28;-1.10;99.90
2497;DHT22;1259;48.306;14.374;2023-02-15T03:30:56;-1.10;99.90
2497;DHT22;1259;48.306;14.374;2023-02-15T03:33:25;-1.00;99.90
2497;DHT22;1259;48.306;14.374;2023-02-15T03:35:53;-1.00;99.90
2497;DHT22;1259;48.306;14.374;2023-02-15T03:38:25;-1.10;99.90
2497;DHT22;1259;48.306;14.374;2023-02-15T03:40:53;-1.10;99.90
2497;DHT22;1259;48.306;14.374;2023-02-15T03:43:40;-1.10;99.90
2497;DHT22;1259;48.306;14.374;2023-02-15T03:46:11;-1.10;99.90
2497;DHT22;1259;48.306;14.374;2023-02-15T03:48:39;-0.90;99.90
2497;DHT22;1259;48.306;14.374;2023-02-15T03:51:07;-0.90;99.90
2497;DHT22;1259;48.306;14.374;2023-02-15T03:53:53;-0.90;99.90
2497;DHT22;1259;48.306;14.374;2023-02-15T03:56:20;-0.90;99.90
2497;DHT22;1259;48.306;14.374;2023-02-15T03:58:47;-1.00;99.90
2497;DHT22;1259;48.306;14.374;2023-02-15T04:01:32;-1.00;99.90
2497;DHT22;1259;48.306;14.374;2023-02-15T04:04:15;-1.00;99.90
2497;DHT22;1259;48.306;14.374;2023-02-15T04:06:44;-1.00;99.90
2497;DHT22;1259;48.306;14.374;2023-02-15T04:09:12;-1.00;99.90
2497;DHT22;1259;48.306;14.374;2023-02-15T04:11:56;-0.90;99.90
2497;DHT22;1259;48.306;14.374;2023-02-15T04:14:23;-0.90;99.90
2497;DHT22;1259;48.306;14.374;2023-02-15T04:17:04;-0.80;99.90
2497;DHT22;1259;48.306;14.374;2023-02-15T04:19:31;-0.70;99.90
2497;DHT22;1259;48.306;14.374;2023-02-15T04:22:15;-0.60;99.90
2497;DHT22;1259;48.306;14.374;2023-02-15T04:25:01;-0.60;99.90
2497;DHT22;1259;48.306;14.374;2023-02-15T04:27:37;-0.60;99.90
2497;DHT22;1259;48.306;14.374;2023-02-15T04:30:05;-0.60;99.90
2497;DHT22;1259;48.306;14.374;2023-02-15T04:32:32;-0.50;99.90
2497;DHT22;1259;48.306;14.374;2023-02-15T04:34:59;-0.60;99.90
2497;DHT22;1259;48.306;14.374;2023-02-15T04:37:26;-0.60;99.90
2497;DHT22;1259;48.306;14.374;2023-02-15T04:39:52;-0.60;99.90
2497;DHT22;1259;48.306;14.374;2023-02-15T04:42:20;-0.70;99.90
2497;DHT22;1259;48.306;14.374;2023-02-15T04:44:47;-0.80;99.90
2497;DHT22;1259;48.306;14.374;2023-02-15T04:47:14;-0.80;99.90
2497;DHT22;1259;48.306;14.374;2023-02-15T04:49:40;-0.90;99.90
2497;DHT22;1259;48.306;14.374;2023-02-15T04:52:07;-0.90;99.90
2497;DHT22;1259;48.306;14.374;2023-02-15T04:54:34;-0.90;99.90
2497;DHT22;1259;48.306;14.374;2023-02-15T04:57:00;-0.90;99.90
2497;DHT22;1259;48.306;14.374;2023-02-15T04:59:29;-0.90;99.90
2497;DHT22;1259;48.306;14.374;2023-02-15T05:01:55;-0.90;99.90
2497;DHT22;1259;48.306;14.374;2023-02-15T05:04:22;-0.90;99.90
2497;DHT22;1259;48.306;14.374;2023-02-15T05:06:49;-0.90;99.90
2497;DHT22;1259;48.306;14.374;2023-02-15T05:09:16;-0.90;99.90
2497;DHT22;1259;48.306;14.374;2023-02-15T05:11:42;-0.80;99.90
2497;DHT22;1259;48.306;14.374;2023-02-15T05:14:09;-0.80;99.90
2497;DHT22;1259;48.306;14.374;2023-02-15T05:16:37;-0.90;99.90
2497;DHT22;1259;48.306;14.374;2023-02-15T05:19:04;-0.90;99.90
2497;DHT22;1259;48.306;14.374;2023-02-15T05:21:31;-1.00;99.90
2497;DHT22;1259;48.306;14.374;2023-02-15T05:23:58;-0.90;99.90
2497;DHT22;1259;48.306;14.374;2023-02-15T05:26:25;-1.00;99.90
2497;DHT22;1259;48.306;14.374;2023-02-15T05:29:09;-1.10;99.90
2497;DHT22;1259;48.306;14.374;2023-02-15T05:31:38;-1.10;99.90
2497;DHT22;1259;48.306;14.374;2023-02-15T05:34:04;-1.10;99.90
2497;DHT22;1259;48.306;14.374;2023-02-15T05:36:31;-1.10;99.90
2497;DHT22;1259;48.306;14.374;2023-02-15T05:38:58;-1.10;99.90
2497;DHT22;1259;48.306;14.374;2023-02-15T05:41:24;-1.10;99.90
2497;DHT22;1259;48.306;14.374;2023-02-15T05:43:51;-1.00;99.90
2497;DHT22;1259;48.306;14.374;2023-02-15T05:46:18;-1.10;99.90
2497;DHT22;1259;48.306;14.374;2023-02-15T05:48:46;-1.10;99.90
2497;DHT22;1259;48.306;14.374;2023-02-15T05:51:12;-1.10;99.90
2497;DHT22;1259;48.306;14.374;2023-02-15T05:53:41;-1.10;99.90
2497;DHT22;1259;48.306;14.374;2023-02-15T05:56:08;-1.10;99.90
2497;DHT22;1259;48.306;14.374;2023-02-15T05:58:36;-1.00;99.90
2497;DHT22;1259;48.306;14.374;2023-02-15T06:01:07;-1.00;99.90
2497;DHT22;1259;48.306;14.374;2023-02-15T06:03:33;-1.00;99.90
2497;DHT22;1259;48.306;14.374;2023-02-15T06:06:02;-1.10;99.90
2497;DHT22;1259;48.306;14.374;2023-02-15T06:08:29;-1.00;99.90
2497;DHT22;1259;48.306;14.374;2023-02-15T06:10:56;-0.90;99.90
2497;DHT22;1259;48.306;14.374;2023-02-15T06:13:23;-1.00;99.90
2497;DHT22;1259;48.306;14.374;2023-02-15T06:15:50;-1.10;99.90
2497;DHT22;1259;48.306;14.374;2023-02-15T06:18:16;-1.10;99.90
2497;DHT22;1259;48.306;14.374;2023-02-15T06:20:44;-1.10;99.90
2497;DHT22;1259;48.306;14.374;2023-02-15T06:23:13;-1.00;99.90
2497;DHT22;1259;48.306;14.374;2023-02-15T06:25:39;-0.90;99.90
2497;DHT22;1259;48.306;14.374;2023-02-15T06:28:06;-0.90;99.90
2497;DHT22;1259;48.306;14.374;2023-02-15T06:30:33;-1.00;99.90
2497;DHT22;1259;48.306;14.374;2023-02-15T06:32:59;-0.80;99.90
2497;DHT22;1259;48.306;14.374;2023-02-15T06:35:26;-0.80;99.90
2497;DHT22;1259;48.306;14.374;2023-02-15T06:37:53;-0.80;99.90
2497;DHT22;1259;48.306;14.374;2023-02-15T06:40:21;-0.60;99.90
2497;DHT22;1259;48.306;14.374;2023-02-15T06:42:47;-0.70;99.90
2497;DHT22;1259;48.306;14.374;2023-02-15T06:45:14;-1.00;99.90
2497;DHT22;1259;48.306;14.374;2023-02-15T06:47:41;-0.90;99.90
2497;DHT22;1259;48.306;14.374;2023-02-15T06:50:08;-0.80;99.90
2497;DHT22;1259;48.306;14.374;2023-02-15T06:52:35;-0.80;99.90
2497;DHT22;1259;48.306;14.374;2023-02-15T06:55:02;-0.80;99.90
2497;DHT22;1259;48.306;14.374;2023-02-15T06:57:30;-0.60;99.90
2497;DHT22;1259;48.306;14.374;2023-02-15T06:59:58;-0.60;99.90
2497;DHT22;1259;48.306;14.374;2023-02-15T07:02:25;-0.60;99.90
2497;DHT22;1259;48.306;14.374;2023-02-15T07:04:51;-0.70;99.90
2497;DHT22;1259;48.306;14.374;2023-02-15T07:07:18;-0.90;99.90
2497;DHT22;1259;48.306;14.374;2023-02-15T07:09:45;-0.90;99.90
2497;DHT22;1259;48.306;14.374;2023-02-15T07:12:11;-0.70;99.90
2497;DHT22;1259;48.306;14.374;2023-02-15T07:14:57;-0.50;99.90
2497;DHT22;1259;48.306;14.374;2023-02-15T07:17:24;-0.40;99.90
2497;DHT22;1259;48.306;14.374;2023-02-15T07:19:53;-0.40;99.90
2497;DHT22;1259;48.306;14.374;2023-02-15T07:22:20;-0.60;99.90
2497;DHT22;1259;48.306;14.374;2023-02-15T07:24:47;-0.60;99.90
2497;DHT22;1259;48.306;14.374;2023-02-15T07:27:14;-0.60;99.90
2497;DHT22;1259;48.306;14.374;2023-02-15T07:29:41;-0.70;99.90
2497;DHT22;1259;48.306;14.374;2023-02-15T07:32:09;-0.60;99.90
2497;DHT22;1259;48.306;14.374;2023-02-15T07:34:35;-0.80;99.90
2497;DHT22;1259;48.306;14.374;2023-02-15T07:37:02;-0.80;99.90
2497;DHT22;1259;48.306;14.374;2023-02-15T07:39:29;-0.80;99.90
2497;DHT22;1259;48.306;14.374;2023-02-15T07:41:56;-0.70;99.90
2497;DHT22;1259;48.306;14.374;2023-02-15T07:44:23;-0.50;99.90
2497;DHT22;1259;48.306;14.374;2023-02-15T07:46:49;-0.50;99.90
2497;DHT22;1259;48.306;14.374;2023-02-15T07:49:17;-0.30;99.90
2497;DHT22;1259;48.306;14.374;2023-02-15T07:51:44;-0.10;99.90
2497;DHT22;1259;48.306;14.374;2023-02-15T07:54:11;-0.10;99.90
2497;DHT22;1259;48.306;14.374;2023-02-15T07:56:38;-0.10;99.90
2497;DHT22;1259;48.306;14.374;2023-02-15T07:59:04;-0.20;99.90
2497;DHT22;1259;48.306;14.374;2023-02-15T08:01:34;-0.50;99.90
2497;DHT22;1259;48.306;14.374;2023-02-15T08:04:01;-0.70;99.90
2497;DHT22;1259;48.306;14.374;2023-02-15T08:06:30;-0.60;99.90
2497;DHT22;1259;48.306;14.374;2023-02-15T08:08:57;-0.50;99.90
2497;DHT22;1259;48.306;14.374;2023-02-15T08:11:24;-0.20;99.90
2497;DHT22;1259;48.306;14.374;2023-02-15T08:13:52;-0.10;99.90
2497;DHT22;1259;48.306;14.374;2023-02-15T08:16:28;-0.20;99.90
2497;DHT22;1259;48.306;14.374;2023-02-15T08:18:55;-0.10;99.90
2497;DHT22;1259;48.306;14.374;2023-02-15T08:21:22;0.00;99.90
2497;DHT22;1259;48.306;14.374;2023-02-15T08:23:52;0.00;99.90
2497;DHT22;1259;48.306;14.374;2023-02-15T08:26:19;0.00;99.90
2497;DHT22;1259;48.306;14.374;2023-02-15T08:28:46;0.10;99.90
2497;DHT22;1259;48.306;14.374;2023-02-15T08:31:14;0.00;99.90
2497;DHT22;1259;48.306;14.374;2023-02-15T08:33:42;0.00;99.90
2497;DHT22;1259;48.306;14.374;2023-02-15T08:36:09;0.00;99.90
2497;DHT22;1259;48.306;14.374;2023-02-15T08:38:37;0.10;99.90
2497;DHT22;1259;48.306;14.374;2023-02-15T08:41:12;0.10;99.90
2497;DHT22;1259;48.306;14.374;2023-02-15T08:43:40;0.30;99.90
2497;DHT22;1259;48.306;14.374;2023-02-15T08:46:07;0.30;99.90
2497;DHT22;1259;48.306;14.374;2023-02-15T08:48:33;0.30;99.90
2497;DHT22;1259;48.306;14.374;2023-02-15T08:51:04;0.30;99.90
2497;DHT22;1259;48.306;14.374;2023-02-15T08:53:30;0.40;99.90
2497;DHT22;1259;48.306;14.374;2023-02-15T08:55:57;0.40;99.90
2497;DHT22;1259;48.306;14.374;2023-02-15T08:58:25;0.50;99.90
2497;DHT22;1259;48.306;14.374;2023-02-15T09:00:52;0.40;99.90
2497;DHT22;1259;48.306;14.374;2023-02-15T09:03:19;0.50;99.90
2497;DHT22;1259;48.306;14.374;2023-02-15T09:05:45;0.60;99.90
2497;DHT22;1259;48.306;14.374;2023-02-15T09:08:12;0.40;99.90
2497;DHT22;1259;48.306;14.374;2023-02-15T09:10:39;0.50;99.90
2497;DHT22;1259;48.306;14.374;2023-02-15T09:13:05;0.40;99.90
2497;DHT22;1259;48.306;14.374;2023-02-15T09:15:33;0.50;99.90
2497;DHT22;1259;48.306;14.374;2023-02-15T09:18:00;0.30;99.90
2497;DHT22;1259;48.306;14.374;2023-02-15T09:20:31;0.50;99.90
2497;DHT22;1259;48.306;14.374;2023-02-15T09:22:58;0.40;99.90
2497;DHT22;1259;48.306;14.374;2023-02-15T09:25:25;0.50;99.90
2497;DHT22;1259;48.306;14.374;2023-02-15T09:27:52;0.60;99.90
2497;DHT22;1259;48.306;14.374;2023-02-15T09:30:19;0.50;99.90
2497;DHT22;1259;48.306;14.374;2023-02-15T09:32:48;0.60;99.90
2497;DHT22;1259;48.306;14.374;2023-02-15T09:35:14;0.60;99.90
2497;DHT22;1259;48.306;14.374;2023-02-15T09:37:41;0.60;99.90
2497;DHT22;1259;48.306;14.374;2023-02-15T09:40:08;0.60;99.90
2497;DHT22;1259;48.306;14.374;2023-02-15T09:42:41;0.60;99.90
2497;DHT22;1259;48.306;14.374;2023-02-15T09:45:25;0.50;99.90
2497;DHT22;1259;48.306;14.374;2023-02-15T09:48:06;0.60;99.90
2497;DHT22;1259;48.306;14.374;2023-02-15T09:50:37;0.40;99.90
2497;DHT22;1259;48.306;14.374;2023-02-15T09:53:18;0.60;99.90
2497;DHT22;1259;48.306;14.374;2023-02-15T09:55:51;0.60;99.90
2497;DHT22;1259;48.306;14.374;2023-02-15T09:58:24;0.60;99.90
2497;DHT22;1259;48.306;14.374;2023-02-15T10:00:57;0.80;99.90
2497;DHT22;1259;48.306;14.374;2023-02-15T10:03:41;0.70;99.90
2497;DHT22;1259;48.306;14.374;2023-02-15T10:06:13;0.70;99.90
2497;DHT22;1259;48.306;14.374;2023-02-15T10:08:52;0.70;99.90
2497;DHT22;1259;48.306;14.374;2023-02-15T10:11:23;0.60;99.90
2497;DHT22;1259;48.306;14.374;2023-02-15T10:14:10;0.50;99.90
2497;DHT22;1259;48.306;14.374;2023-02-15T10:16:41;0.40;99.90
2497;DHT22;1259;48.306;14.374;2023-02-15T10:19:11;0.50;99.90
2497;DHT22;1259;48.306;14.374;2023-02-15T10:21:43;0.50;99.90
2497;DHT22;1259;48.306;14.374;2023-02-15T10:24:17;0.60;99.90
2497;DHT22;1259;48.306;14.374;2023-02-15T10:26:46;0.40;99.90
2497;DHT22;1259;48.306;14.374;2023-02-15T10:29:16;0.30;99.90
2497;DHT22;1259;48.306;14.374;2023-02-15T10:31:47;0.30;99.90
2497;DHT22;1259;48.306;14.374;2023-02-15T10:34:17;0.40;99.90
2497;DHT22;1259;48.306;14.374;2023-02-15T10:36:58;0.20;99.90
2497;DHT22;1259;48.306;14.374;2023-02-15T10:39:31;0.20;99.90
2497;DHT22;1259;48.306;14.374;2023-02-15T10:42:02;0.50;99.90
2497;DHT22;1259;48.306;14.374;2023-02-15T10:44:34;0.10;99.90
2497;DHT22;1259;48.306;14.374;2023-02-15T10:50:09;0.40;99.90
2497;DHT22;1259;48.306;14.374;2023-02-15T10:52:43;0.60;99.90
2497;DHT22;1259;48.306;14.374;2023-02-15T10:55:15;0.50;99.90
2497;DHT22;1259;48.306;14.374;2023-02-15T10:57:46;0.60;99.90
2497;DHT22;1259;48.306;14.374;2023-02-15T11:00:17;0.60;99.90
2497;DHT22;1259;48.306;14.374;2023-02-15T11:02:49;0.60;99.90
2497;DHT22;1259;48.306;14.374;2023-02-15T11:05:31;0.60;99.90
2497;DHT22;1259;48.306;14.374;2023-02-15T11:07:59;0.50;99.90
2497;DHT22;1259;48.306;14.374;2023-02-15T11:10:28;0.70;99.90
2497;DHT22;1259;48.306;14.374;2023-02-15T11:12:56;0.70;99.90
2497;DHT22;1259;48.306;14.374;2023-02-15T11:15:25;0.70;99.90
2497;DHT22;1259;48.306;14.374;2023-02-15T11:17:55;0.60;99.90
2497;DHT22;1259;48.306;14.374;2023-02-15T11:20:23;0.50;99.90
2497;DHT22;1259;48.306;14.374;2023-02-15T11:22:52;0.60;99.90
2497;DHT22;1259;48.306;14.374;2023-02-15T11:25:20;0.80;99.90
2497;DHT22;1259;48.306;14.374;2023-02-15T11:27:49;1.00;99.90
2497;DHT22;1259;48.306;14.374;2023-02-15T11:30:17;1.00;99.90
2497;DHT22;1259;48.306;14.374;2023-02-15T11:32:46;0.90;99.90
2497;DHT22;1259;48.306;14.374;2023-02-15T11:35:18;0.80;99.90
2497;DHT22;1259;48.306;14.374;2023-02-15T11:37:47;0.70;99.90
2497;DHT22;1259;48.306;14.374;2023-02-15T11:40:17;0.60;99.90
2497;DHT22;1259;48.306;14.374;2023-02-15T11:42:47;0.50;99.90
2497;DHT22;1259;48.306;14.374;2023-02-15T11:45:18;0.70;99.90
2497;DHT22;1259;48.306;14.374;2023-02-15T11:47:46;0.90;99.90
2497;DHT22;1259;48.306;14.374;2023-02-15T11:50:13;1.00;99.90
2497;DHT22;1259;48.306;14.374;2023-02-15T11:52:41;0.80;99.90
2497;DHT22;1259;48.306;14.374;2023-02-15T11:55:18;1.00;99.90
2497;DHT22;1259;48.306;14.374;2023-02-15T11:57:48;1.00;99.90
2497;DHT22;1259;48.306;14.374;2023-02-15T12:00:20;1.10;99.90
2497;DHT22;1259;48.306;14.374;2023-02-15T12:02:52;1.00;99.90
2497;DHT22;1259;48.306;14.374;2023-02-15T12:05:20;1.10;99.90
2497;DHT22;1259;48.306;14.374;2023-02-15T12:07:49;1.20;99.90
2497;DHT22;1259;48.306;14.374;2023-02-15T12:10:19;1.40;99.90
2497;DHT22;1259;48.306;14.374;2023-02-15T12:12:48;1.30;99.90
2497;DHT22;1259;48.306;14.374;2023-02-15T12:15:34;1.20;99.90
2497;DHT22;1259;48.306;14.374;2023-02-15T12:18:01;1.10;99.90
2497;DHT22;1259;48.306;14.374;2023-02-15T12:20:29;1.00;99.90
2497;DHT22;1259;48.306;14.374;2023-02-15T12:22:58;1.10;99.90
2497;DHT22;1259;48.306;14.374;2023-02-15T12:25:29;1.40;99.90
2497;DHT22;1259;48.306;14.374;2023-02-15T12:27:57;1.40;99.90
2497;DHT22;1259;48.306;14.374;2023-02-15T12:30:25;1.40;99.90
2497;DHT22;1259;48.306;14.374;2023-02-15T12:32:54;1.30;99.90
2497;DHT22;1259;48.306;14.374;2023-02-15T12:35:26;1.30;99.90
2497;DHT22;1259;48.306;14.374;2023-02-15T12:37:55;1.40;99.90
2497;DHT22;1259;48.306;14.374;2023-02-15T12:40:24;1.20;99.90
2497;DHT22;1259;48.306;14.374;2023-02-15T12:42:51;1.00;99.90
2497;DHT22;1259;48.306;14.374;2023-02-15T12:45:23;1.10;99.90
2497;DHT22;1259;48.306;14.374;2023-02-15T12:50:32;1.20;99.90
2497;DHT22;1259;48.306;14.374;2023-02-15T12:53:05;1.10;99.90
2497;DHT22;1259;48.306;14.374;2023-02-15T12:55:33;1.10;99.90
2497;DHT22;1259;48.306;14.374;2023-02-15T12:58:06;1.10;99.90
2497;DHT22;1259;48.306;14.374;2023-02-15T13:00:35;1.20;99.90
2497;DHT22;1259;48.306;14.374;2023-02-15T13:03:02;1.30;99.90
2497;DHT22;1259;48.306;14.374;2023-02-15T13:05:31;1.40;99.90
2497;DHT22;1259;48.306;14.374;2023-02-15T13:07:58;1.30;99.90
2497;DHT22;1259;48.306;14.374;2023-02-15T13:10:26;1.20;99.90
2497;DHT22;1259;48.306;14.374;2023-02-15T13:12:53;1.30;99.90
2497;DHT22;1259;48.306;14.374;2023-02-15T13:15:27;1.20;99.90
2497;DHT22;1259;48.306;14.374;2023-02-15T13:17:57;1.30;99.90
2497;DHT22;1259;48.306;14.374;2023-02-15T13:20:24;1.40;99.90
2497;DHT22;1259;48.306;14.374;2023-02-15T13:22:53;1.40;99.90
2497;DHT22;1259;48.306;14.374;2023-02-15T13:25:20;1.30;99.90
2497;DHT22;1259;48.306;14.374;2023-02-15T13:27:48;1.10;99.90
2497;DHT22;1259;48.306;14.374;2023-02-15T13:30:20;1.30;99.90
2497;DHT22;1259;48.306;14.374;2023-02-15T13:32:48;1.30;99.90
2497;DHT22;1259;48.306;14.374;2023-02-15T13:35:17;1.20;99.90
2497;DHT22;1259;48.306;14.374;2023-02-15T13:37:50;1.20;99.90
2497;DHT22;1259;48.306;14.374;2023-02-15T13:40:28;1.10;99.90
2497;DHT22;1259;48.306;14.374;2023-02-15T13:42:59;1.20;99.90
2497;DHT22;1259;48.306;14.374;2023-02-15T13:45:37;1.20;99.90
2497;DHT22;1259;48.306;14.374;2023-02-15T13:48:09;1.00;99.90
2497;DHT22;1259;48.306;14.374;2023-02-15T13:50:46;0.90;99.90
2497;DHT22;1259;48.306;14.374;2023-02-15T13:53:19;1.10;99.90
2497;DHT22;1259;48.306;14.374;2023-02-15T13:55:47;1.10;99.90
2497;DHT22;1259;48.306;14.374;2023-02-15T13:58:24;1.20;99.90
2497;DHT22;1259;48.306;14.374;2023-02-15T14:00:59;1.30;99.90
2497;DHT22;1259;48.306;14.374;2023-02-15T14:03:43;1.40;99.90
2497;DHT22;1259;48.306;14.374;2023-02-15T14:06:25;1.20;99.90
2497;DHT22;1259;48.306;14.374;2023-02-15T14:08:58;1.20;99.90
2497;DHT22;1259;48.306;14.374;2023-02-15T14:11:30;1.30;99.90
2497;DHT22;1259;48.306;14.374;2023-02-15T14:16:48;1.20;99.90
2497;DHT22;1259;48.306;14.374;2023-02-15T14:19:20;1.30;99.90
2497;DHT22;1259;48.306;14.374;2023-02-15T14:21:53;1.20;99.90
2497;DHT22;1259;48.306;14.374;2023-02-15T14:24:24;1.10;99.90
2497;DHT22;1259;48.306;14.374;2023-02-15T14:26:55;1.10;99.90
2497;DHT22;1259;48.306;14.374;2023-02-15T14:29:25;1.00;99.90
2497;DHT22;1259;48.306;14.374;2023-02-15T14:31:55;1.10;99.90
2497;DHT22;1259;48.306;14.374;2023-02-15T14:34:24;1.00;99.90
2497;DHT22;1259;48.306;14.374;2023-02-15T14:36:54;1.10;99.90
2497;DHT22;1259;48.306;14.374;2023-02-15T14:39:24;1.20;99.90
2497;DHT22;1259;48.306;14.374;2023-02-15T14:42:11;1.10;99.90
2497;DHT22;1259;48.306;14.374;2023-02-15T14:44:43;0.80;99.90
2497;DHT22;1259;48.306;14.374;2023-02-15T14:47:14;0.70;99.90
2497;DHT22;1259;48.306;14.374;2023-02-15T14:49:43;0.70;99.90
2497;DHT22;1259;48.306;14.374;2023-02-15T14:52:11;0.80;99.90
2497;DHT22;1259;48.306;14.374;2023-02-15T14:54:57;0.90;99.90
2497;DHT22;1259;48.306;14.374;2023-02-15T14:57:27;1.00;99.90
2497;DHT22;1259;48.306;14.374;2023-02-15T14:59:57;0.90;99.90
2497;DHT22;1259;48.306;14.374;2023-02-15T15:02:24;0.90;99.90
2497;DHT22;1259;48.306;14.374;2023-02-15T15:04:56;0.50;99.90
2497;DHT22;1259;48.306;14.374;2023-02-15T15:07:25;0.40;99.90
2497;DHT22;1259;48.306;14.374;2023-02-15T15:09:58;0.50;99.90
2497;DHT22;1259;48.306;14.374;2023-02-15T15:12:38;0.70;99.90
2497;DHT22;1259;48.306;14.374;2023-02-15T15:15:05;0.80;99.90
2497;DHT22;1259;48.306;14.374;2023-02-15T15:17:52;0.70;99.90
2497;DHT22;1259;48.306;14.374;2023-02-15T15:25:47;0.30;99.90
2497;DHT22;1259;48.306;14.374;2023-02-15T15:30:56;0.40;99.90
2497;DHT22;1259;48.306;14.374;2023-02-15T15:33:32;0.60;99.90
2497;DHT22;1259;48.306;14.374;2023-02-15T15:36:08;0.70;99.90
2497;DHT22;1259;48.306;14.374;2023-02-15T15:38:42;0.70;99.90
2497;DHT22;1259;48.306;14.374;2023-02-15T15:41:17;0.80;99.90
2497;DHT22;1259;48.306;14.374;2023-02-15T15:46:37;0.80;99.90
2497;DHT22;1259;48.306;14.374;2023-02-15T15:49:06;0.90;99.90
2497;DHT22;1259;48.306;14.374;2023-02-15T15:51:37;0.60;99.90
2497;DHT22;1259;48.306;14.374;2023-02-15T15:54:05;0.40;99.90
2497;DHT22;1259;48.306;14.374;2023-02-15T15:56:34;0.40;99.90
2497;DHT22;1259;48.306;14.374;2023-02-15T15:59:03;0.60;99.90
2497;DHT22;1259;48.306;14.374;2023-02-15T16:01:31;0.70;99.90
2497;DHT22;1259;48.306;14.374;2023-02-15T16:04:01;0.70;99.90
2497;DHT22;1259;48.306;14.374;2023-02-15T16:06:28;0.80;99.90
2497;DHT22;1259;48.306;14.374;2023-02-15T16:08:55;0.40;99.90
2497;DHT22;1259;48.306;14.374;2023-02-15T16:11:23;0.20;99.90
2497;DHT22;1259;48.306;14.374;2023-02-15T16:13:51;0.20;99.90
2497;DHT22;1259;48.306;14.374;2023-02-15T16:16:19;0.30;99.90
2497;DHT22;1259;48.306;14.374;2023-02-15T16:18:46;0.50;99.90
2497;DHT22;1259;48.306;14.374;2023-02-15T16:21:14;0.50;99.90
2497;DHT22;1259;48.306;14.374;2023-02-15T16:23:59;0.50;99.90
2497;DHT22;1259;48.306;14.374;2023-02-15T16:26:35;0.50;99.90
2497;DHT22;1259;48.306;14.374;2023-02-15T16:29:13;0.60;99.90
2497;DHT22;1259;48.306;14.374;2023-02-15T16:31:40;0.70;99.90